createdAt,value
2022-11-18T00:03:10.471Z,0.40
2022-11-18T00:08:13.714Z,0.20
2022-11-18T00:13:35.989Z,0.30
2022-11-18T00:18:40.036Z,0.40
2022-11-18T00:23:43.506Z,0.50
2022-11-18T00:28:48.099Z,0.80
2022-11-18T00:33:54.738Z,0.50
2022-11-18T00:38:58.711Z,0.57
2022-11-18T00:44:09.198Z,0.45
2022-11-18T00:49:12.811Z,0.45
2022-11-18T00:54:16.074Z,0.40
2022-11-18T00:59:21.168Z,0.30
2022-11-18T01:04:24.776Z,0.30
2022-11-18T01:09:28.111Z,0.30
2022-11-18T01:14:32.822Z,0.30
2022-11-18T01:19:36.742Z,0.40
2022-11-18T01:24:39.990Z,0.50
2022-11-18T01:29:45.050Z,0.57
2022-11-18T01:34:48.422Z,0.50
2022-11-18T01:39:51.745Z,0.50
2022-11-18T01:45:05.216Z,0.60
2022-11-18T01:50:09.917Z,0.45
2022-11-18T01:55:20.620Z,0.38
2022-11-18T02:00:25.369Z,0.43
2022-11-18T02:05:33.936Z,0.80
2022-11-18T02:10:37.211Z,1.10
2022-11-18T02:15:50.309Z,1.67
2022-11-18T02:21:00.108Z,1.48
2022-11-18T02:26:38.831Z,1.05
2022-11-18T02:31:50.249Z,1.20
2022-11-18T02:36:58.741Z,1.00
2022-11-18T02:42:08.676Z,0.88
2022-11-18T02:47:16.940Z,1.10
2022-11-18T02:52:21.984Z,1.33
2022-11-18T02:57:27.605Z,1.20
2022-11-18T03:02:42.881Z,1.20
2022-11-18T03:07:51.924Z,1.25
2022-11-18T03:13:05.297Z,1.10
2022-11-18T03:18:18.023Z,0.90
2022-11-18T03:23:27.254Z,0.60
2022-11-18T03:28:37.473Z,0.32
2022-11-18T03:33:47.117Z,0.47
2022-11-18T03:38:54.219Z,0.40
2022-11-18T03:44:02.262Z,0.40
2022-11-18T03:49:09.207Z,0.60
2022-11-18T03:54:15.893Z,0.55
2022-11-18T03:59:22.462Z,0.90
2022-11-18T04:04:29.134Z,1.30
2022-11-18T04:09:37.390Z,0.95
2022-11-18T04:14:43.265Z,1.92
2022-11-18T04:19:48.239Z,2.03
2022-11-18T04:24:51.580Z,1.75
2022-11-18T04:29:54.881Z,1.75
2022-11-18T04:34:59.624Z,1.58
2022-11-18T04:40:02.980Z,1.13
2022-11-18T04:45:07.644Z,1.67
2022-11-18T04:50:13.419Z,0.70
2022-11-18T04:55:16.878Z,0.52
2022-11-18T05:00:22.646Z,0.60
2022-11-18T05:05:28.868Z,0.40
2022-11-18T05:10:32.155Z,0.40
2022-11-18T05:15:35.477Z,0.30
2022-11-18T05:20:41.876Z,0.35
2022-11-18T05:25:45.125Z,0.20
2022-11-18T05:30:48.475Z,0.30
2022-11-18T05:35:55.237Z,0.20
2022-11-18T05:40:58.826Z,0.20
2022-11-18T05:46:02.667Z,0.20
2022-11-18T05:51:07.570Z,0.30
2022-11-18T05:56:20.023Z,0.20
2022-11-18T06:01:27.170Z,0.20
2022-11-18T06:06:31.987Z,0.30
2022-11-18T06:11:40.980Z,0.30
2022-11-18T06:16:50.189Z,0.30
2022-11-18T06:21:55.413Z,0.22
2022-11-18T06:27:01.721Z,0.30
2022-11-18T06:32:05.026Z,0.22
2022-11-18T06:37:15.653Z,0.20
2022-11-18T06:42:32.819Z,0.20
2022-11-18T06:47:39.225Z,0.20
2022-11-18T06:52:43.950Z,0.20
2022-11-18T06:57:47.591Z,0.20
2022-11-18T07:02:50.899Z,0.10
2022-11-18T07:07:55.867Z,0.20
2022-11-18T07:12:59.143Z,0.30
2022-11-18T07:18:03.473Z,0.40
2022-11-18T07:23:08.114Z,0.20
2022-11-18T07:28:11.416Z,0.30
2022-11-18T07:33:19.501Z,0.32
2022-11-18T07:38:25.533Z,0.20
2022-11-18T07:43:29.117Z,0.20
2022-11-18T07:48:32.429Z,0.20
2022-11-18T07:53:37.921Z,0.10
2022-11-18T07:58:45.236Z,0.20
2022-11-18T08:03:52.834Z,0.22
2022-11-18T08:08:57.972Z,0.20
2022-11-18T08:14:01.335Z,0.30
2022-11-18T08:19:04.699Z,0.30
2022-11-18T08:24:11.350Z,0.30
2022-11-18T08:29:17.865Z,0.30
2022-11-18T08:34:23.762Z,0.30
2022-11-18T08:39:28.593Z,0.50
2022-11-18T08:44:33.674Z,0.30
2022-11-18T08:49:37.030Z,0.50
2022-11-18T08:54:42.550Z,0.32
2022-11-18T08:59:46.433Z,0.47
2022-11-18T09:04:50.603Z,0.30
2022-11-18T09:09:55.556Z,0.20
2022-11-18T09:15:15.151Z,0.20
2022-11-18T09:20:19.293Z,0.30
2022-11-18T09:25:24.078Z,0.32
2022-11-18T09:30:27.690Z,0.40
2022-11-18T09:35:32.277Z,0.30
2022-11-18T09:40:45.753Z,0.20
2022-11-18T09:45:55.433Z,0.30
2022-11-18T09:50:59.442Z,0.20
2022-11-18T09:56:04.957Z,0.40
2022-11-18T10:01:14.443Z,0.30
2022-11-18T10:06:25.432Z,0.30
2022-11-18T10:11:40.266Z,0.30
2022-11-18T10:16:57.961Z,0.20
2022-11-18T10:22:24.389Z,0.20
2022-11-18T10:27:39.874Z,0.20
2022-11-18T10:32:57.115Z,0.20
2022-11-18T10:38:09.209Z,0.20
2022-11-18T10:43:14.636Z,0.10
2022-11-18T10:48:20.333Z,0.20
2022-11-18T10:53:32.260Z,0.13
2022-11-18T10:58:42.066Z,0.20
2022-11-18T11:03:56.936Z,0.20
2022-11-18T11:09:03.278Z,0.28
2022-11-18T11:14:22.412Z,0.20
2022-11-18T11:19:34.496Z,0.10
2022-11-18T11:24:38.614Z,0.22
2022-11-18T11:30:08.960Z,0.50
2022-11-18T11:35:18.493Z,0.40
2022-11-18T11:40:34.144Z,0.35
2022-11-18T11:45:47.598Z,0.50
2022-11-18T11:51:04.330Z,0.30
2022-11-18T11:56:18.292Z,0.40
2022-11-18T12:01:37.038Z,0.20
2022-11-18T12:06:42.698Z,0.30
2022-11-18T12:11:52.489Z,0.20
2022-11-18T12:17:06.315Z,0.30
2022-11-18T12:22:11.084Z,0.30
2022-11-18T12:27:35.888Z,0.40
2022-11-18T12:32:43.429Z,0.20
2022-11-18T12:37:58.841Z,0.30
2022-11-18T12:43:20.295Z,0.20
2022-11-18T12:48:41.064Z,0.20
2022-11-18T12:53:46.598Z,0.20
2022-11-18T12:58:52.558Z,0.40
2022-11-18T13:04:08.794Z,0.30
2022-11-18T13:09:18.555Z,0.30
2022-11-18T13:14:43.534Z,0.52
2022-11-18T13:19:58.269Z,0.20
2022-11-18T13:25:01.606Z,0.30
2022-11-18T13:30:11.561Z,0.40
2022-11-18T13:35:18.676Z,0.40
2022-11-18T13:40:24.185Z,0.38
2022-11-18T13:45:31.221Z,0.20
2022-11-18T13:50:39.061Z,0.20
2022-11-18T13:55:47.621Z,0.40
2022-11-18T14:00:57.388Z,0.38
2022-11-18T14:06:02.527Z,0.40
2022-11-18T14:11:08.179Z,0.30
2022-11-18T14:16:32.834Z,0.60
2022-11-18T14:21:39.041Z,0.30
2022-11-18T14:26:42.437Z,0.43
2022-11-18T14:31:45.990Z,0.50
2022-11-18T14:36:51.713Z,0.60
2022-11-18T14:41:55.554Z,0.40
2022-11-18T14:47:00.662Z,0.40
2022-11-18T14:52:05.374Z,0.60
2022-11-18T14:57:13.767Z,0.52
2022-11-18T15:02:18.586Z,0.50
2022-11-18T15:07:24.262Z,0.50
2022-11-18T15:12:28.436Z,0.60
2022-11-18T15:17:31.699Z,0.60
2022-11-18T15:22:36.461Z,0.60
2022-11-18T15:27:39.981Z,0.28
2022-11-18T15:32:44.073Z,0.63
2022-11-18T15:37:48.768Z,0.40
2022-11-18T15:42:52.517Z,0.60
2022-11-18T15:47:55.907Z,0.68
2022-11-18T15:53:00.655Z,0.40
2022-11-18T15:58:03.914Z,0.70
2022-11-18T16:03:07.347Z,0.70
2022-11-18T16:08:12.053Z,0.63
2022-11-18T16:13:15.312Z,0.70
2022-11-18T16:18:19.810Z,0.68
2022-11-18T16:23:24.541Z,0.95
2022-11-18T16:28:28.734Z,1.08
2022-11-18T16:33:32.306Z,0.90
2022-11-18T16:38:36.951Z,1.20
2022-11-18T16:43:40.390Z,1.20
2022-11-18T16:48:43.728Z,1.00
2022-11-18T16:53:53.073Z,0.90
2022-11-18T16:59:00.974Z,0.63
2022-11-18T17:04:04.558Z,0.70
2022-11-18T17:09:13.523Z,0.93
2022-11-18T17:14:18.957Z,1.10
2022-11-18T17:19:24.135Z,0.77
2022-11-18T17:24:30.644Z,0.70
2022-11-18T17:29:34.752Z,0.77
2022-11-18T17:34:38.117Z,0.90
2022-11-18T17:39:42.717Z,0.70
2022-11-18T17:44:52.329Z,1.15
2022-11-18T17:49:55.774Z,0.70
2022-11-18T17:55:00.757Z,0.73
2022-11-18T18:00:04.946Z,0.50
2022-11-18T18:05:09.081Z,0.90
2022-11-18T18:10:13.797Z,0.60
2022-11-18T18:15:23.486Z,0.52
2022-11-18T18:20:27.821Z,0.47
2022-11-18T18:25:36.268Z,0.60
2022-11-18T18:30:43.122Z,0.57
2022-11-18T18:35:46.589Z,0.50
2022-11-18T18:40:51.511Z,0.93
2022-11-18T18:46:17.339Z,1.00
2022-11-18T18:51:20.781Z,0.60
2022-11-18T18:56:26.344Z,1.20
2022-11-18T19:01:30.161Z,0.80
2022-11-18T19:06:58.373Z,0.90
2022-11-18T19:12:17.460Z,1.20
2022-11-18T19:17:21.005Z,1.40
2022-11-18T19:22:24.447Z,0.88
2022-11-18T19:27:29.485Z,0.90
2022-11-18T19:32:32.945Z,0.90
2022-11-18T19:37:36.608Z,0.80
2022-11-18T19:42:42.462Z,0.77
2022-11-18T19:47:45.798Z,1.10
2022-11-18T19:52:49.435Z,1.30
2022-11-18T19:57:54.178Z,1.10
2022-11-18T20:02:57.761Z,0.90
2022-11-18T20:08:01.076Z,2.00
2022-11-18T20:13:05.836Z,2.15
2022-11-18T20:18:09.344Z,1.98
2022-11-18T20:23:12.882Z,1.10
2022-11-18T20:28:17.671Z,1.20
2022-11-18T20:33:21.033Z,1.10
2022-11-18T20:38:24.453Z,0.98
2022-11-18T20:43:29.240Z,0.50
2022-11-18T20:48:32.902Z,0.80
2022-11-18T20:53:37.989Z,0.75
2022-11-18T20:58:42.928Z,0.70
2022-11-18T21:03:52.766Z,0.68
2022-11-18T21:08:57.907Z,0.88
2022-11-18T21:14:24.351Z,0.67
2022-11-18T21:19:29.118Z,0.70
2022-11-18T21:24:34.249Z,0.60
2022-11-18T21:29:39.470Z,0.70
2022-11-18T21:34:42.805Z,0.85
2022-11-18T21:39:48.235Z,0.60
2022-11-18T21:44:53.971Z,1.60
2022-11-18T21:49:57.357Z,1.48
2022-11-18T21:55:02.301Z,1.50
2022-11-18T22:00:08.547Z,1.95
2022-11-18T22:05:12.002Z,2.00
2022-11-18T22:10:16.963Z,2.42
2022-11-18T22:15:22.681Z,2.60
2022-11-18T22:20:26.491Z,2.05
2022-11-18T22:25:29.774Z,1.67
2022-11-18T22:30:34.463Z,1.35
2022-11-18T22:35:38.792Z,1.52
2022-11-18T22:40:42.283Z,1.88
2022-11-18T22:45:47.001Z,1.50
2022-11-18T22:50:57.875Z,1.27
2022-11-18T22:56:05.753Z,1.80
2022-11-18T23:01:12.560Z,1.35
2022-11-18T23:06:16.130Z,1.35
2022-11-18T23:11:41.347Z,1.58
2022-11-18T23:16:46.136Z,1.42
2022-11-18T23:21:49.655Z,1.33
2022-11-18T23:26:53.032Z,1.27
2022-11-18T23:31:57.826Z,1.33
2022-11-18T23:37:01.277Z,1.00
2022-11-18T23:42:06.445Z,1.40
2022-11-18T23:47:12.252Z,1.27
2022-11-18T23:52:16.014Z,0.98
2022-11-18T23:57:19.509Z,1.00
